Time;durP1;ratioP1;P1;durP2;ratioP2;P2;SDS_P1;SDS_P2;PMS_P1;PMS_P2;Temp;Humidity;BMP_temperature;BMP_pressure;BME280_temperature;BME280_humidity;BME280_pressure;Samples;Min_cycle;Max_cycle;Signal;HPM_P1;HPM_P2
2024/03/16 00:00:06;;;;;;;;;;;;;;;;;;5004517;28;19917;-71
2024/03/16 00:02:32;;;;;;;;;;;;;;;;;;5006675;28;19937;-71
2024/03/16 00:04:57;;;;;;;;;;;;;;;;;;5006529;28;19937;-72
2024/03/16 00:07:22;;;;;;;;;;;;;;;;;;5013185;28;19967;-71
2024/03/16 00:09:47;;;;;;;;;;;;;;;;;;5007242;28;19948;-71
2024/03/16 00:12:14;;;;;;;;;;;;;;;;;;5010151;28;20008;-71
2024/03/16 00:14:39;;;;;;;;;;;;;;;;;;5006195;28;20291;-71
2024/03/16 00:17:04;;;;;;;;;;;;;;;;;;5006979;28;20321;-71
2024/03/16 00:19:29;;;;;;;;;;;;;;;;;;5006795;28;19917;-71
2024/03/16 00:21:55;;;;;;;;;;;;;;;;;;5005922;28;20417;-71
2024/03/16 00:24:20;;;;;;;;;;;;;;;;;;5005940;28;19929;-71
2024/03/16 00:26:45;;;;;;;;;;;;;;;;;;5006189;28;19924;-71
2024/03/16 00:29:11;;;;;;;;;;;;;;;;;;5006862;28;19953;-71
2024/03/16 00:31:36;;;;;;;;;;;;;;;;;;5006357;28;19922;-71
2024/03/16 00:34:03;;;;;;;;;;;;;;;;;;5006878;28;19945;-71
2024/03/16 00:36:28;;;;;;;;;;;;;;;;;;5012505;28;19925;-71
2024/03/16 00:38:54;;;;;;;;;;;;;;;;;;5007655;28;19921;-71
2024/03/16 00:41:20;;;;;;;;;;;;;;;;;;5008798;28;19921;-71
2024/03/16 00:43:45;;;;;;;;;;;;;;;;;;5011492;28;20362;-72
2024/03/16 00:46:10;;;;;;;;;;;;;;;;;;5009027;28;19921;-72
2024/03/16 00:48:35;;;;;;;;;;;;;;;;;;5010318;28;19967;-71
2024/03/16 00:51:00;;;;;;;;;;;;;;;;;;5009470;28;20350;-72
2024/03/16 00:53:25;;;;;;;;;;;;;;;;;;5010146;28;19928;-72
2024/03/16 00:55:51;;;;;;;;;;;;;;;;;;5009301;28;19918;-71
2024/03/16 00:58:16;;;;;;;;;;;;;;;;;;5009740;28;19975;-72
2024/03/16 01:00:41;;;;;;;;;;;;;;;;;;5009483;28;19972;-73
2024/03/16 01:03:06;;;;;;;;;;;;;;;;;;5009618;28;19921;-73
2024/03/16 01:05:32;;;;;;;;;;;;;;;;;;5009878;28;19957;-73
2024/03/16 01:07:57;;;;;;;;;;;;;;;;;;5009911;28;19940;-73
2024/03/16 01:10:22;;;;;;;;;;;;;;;;;;5007767;28;20362;-73
2024/03/16 01:12:47;;;;;;;;;;;;;;;;;;5008201;28;19922;-73
2024/03/16 01:15:12;;;;;;;;;;;;;;;;;;5008241;28;19918;-73
2024/03/16 01:17:37;;;;;;;;;;;;;;;;;;5008613;28;19921;-73
2024/03/16 01:20:03;;;;;;;;;;;;;;;;;;5008594;28;19989;-73
2024/03/16 01:22:28;;;;;;;;;;;;;;;;;;5007228;28;19940;-73
2024/03/16 01:24:54;;;;;;;;;;;;;;;;;;5009920;28;19917;-72
2024/03/16 01:27:19;;;;;;;;;;;;;;;;;;5009506;28;20164;-72
2024/03/16 01:29:46;;;;;;;;;;;;;;;;;;5009725;28;20177;-72
2024/03/16 01:32:11;;;;;;;;;;;;;;;;;;5008838;28;19917;-73
2024/03/16 01:34:36;;;;;;;;;;;;;;;;;;5008980;28;19929;-72
2024/03/16 01:37:02;;;;;;;;;;;;;;;;;;5014403;28;19921;-73
2024/03/16 01:39:27;;;;;;;;;;;;;;;;;;5009275;28;19933;-73
2024/03/16 01:41:52;;;;;;;;;;;;;;;;;;5008426;28;20461;-72
2024/03/16 01:44:17;;;;;;;;;;;;;;;;;;5008511;28;20460;-72
2024/03/16 01:46:42;;;;;;;;;;;;;;;;;;5008601;28;19921;-72
2024/03/16 01:49:07;;;;;;;;;;;;;;;;;;5008752;28;19921;-72
2024/03/16 01:51:33;;;;;;;;;;;;;;;;;;5008097;28;20390;-72
2024/03/16 01:53:58;;;;;;;;;;;;;;;;;;5008643;28;20358;-72
2024/03/16 01:56:23;;;;;;;;;;;;;;;;;;5006810;28;19929;-72
2024/03/16 01:58:48;;;;;;;;;;;;;;;;;;5006627;28;19976;-72
2024/03/16 02:01:14;;;;;;;;;;;;;;;;;;5007326;28;20369;-73
2024/03/16 02:03:39;;;;;;;;;;;;;;;;;;5008770;28;19925;-72
2024/03/16 02:06:05;;;;;;;;;;;;;;;;;;5000333;28;19928;-72
2024/03/16 02:08:30;;;;;;;;;;;;;;;;;;5010494;28;20343;-71
2024/03/16 02:10:55;;;;;;;;;;;;;;;;;;5009714;28;19922;-72
2024/03/16 02:13:21;;;;;;;;;;;;;;;;;;5001808;28;20036;-71
2024/03/16 02:15:46;;;;;;;;;;;;;;;;;;5007380;28;19944;-72
2024/03/16 02:18:11;;;;;;;;;;;;;;;;;;5007303;28;19918;-72
2024/03/16 02:20:37;;;;;;;;;;;;;;;;;;5007240;28;20294;-72
2024/03/16 02:23:02;;;;;;;;;;;;;;;;;;5007655;28;19921;-71
2024/03/16 02:25:27;;;;;;;;;;;;;;;;;;5006361;28;19932;-72
2024/03/16 02:27:52;;;;;;;;;;;;;;;;;;5008072;28;19940;-72
2024/03/16 02:30:19;;;;;;;;;;;;;;;;;;5006943;28;19929;-73
2024/03/16 02:32:44;;;;;;;;;;;;;;;;;;5007818;28;19947;-73
2024/03/16 02:35:09;;;;;;;;;;;;;;;;;;5007665;28;19925;-72
2024/03/16 02:37:34;;;;;;;;;;;;;;;;;;5008221;28;19925;-73
2024/03/16 02:39:59;;;;;;;;;;;;;;;;;;5006679;28;19928;-73
2024/03/16 02:42:25;;;;;;;;;;;;;;;;;;5007487;28;20440;-73
2024/03/16 02:47:34;;;;;;;;;;;;;;;;;;4996714;28;20437;-73
2024/03/16 02:50:00;;;;;;;;;;;;;;;;;;5001355;28;19921;-73
2024/03/16 02:52:26;;;;;;;;;;;;;;;;;;5007191;28;19922;-73
2024/03/16 02:54:51;;;;;;;;;;;;;;;;;;5006696;28;19917;-73
2024/03/16 02:57:16;;;;;;;;;;;;;;;;;;5008019;28;19922;-73
2024/03/16 02:59:41;;;;;;;;;;;;;;;;;;5008039;28;19926;-73
2024/03/16 03:02:06;;;;;;;;;;;;;;;;;;5005596;28;19933;-73
2024/03/16 03:04:31;;;;;;;;;;;;;;;;;;5007325;28;20374;-73
2024/03/16 03:06:56;;;;;;;;;;;;;;;;;;5007603;28;19925;-73
2024/03/16 03:09:21;;;;;;;;;;;;;;;;;;5007929;28;19945;-73
2024/03/16 03:11:46;;;;;;;;;;;;;;;;;;5005436;28;19953;-73
2024/03/16 03:14:15;;;;;;;;;;;;;;;;;;5007029;28;19976;-74
2024/03/16 03:16:40;;;;;;;;;;;;;;;;;;5007757;28;19964;-73
2024/03/16 03:19:05;;;;;;;;;;;;;;;;;;5004946;28;20246;-73
2024/03/16 03:21:31;;;;;;;;;;;;;;;;;;4997932;28;19936;-73
2024/03/16 03:23:58;;;;;;;;;;;;;;;;;;5005326;28;19936;-73
2024/03/16 03:26:23;;;;;;;;;;;;;;;;;;5006598;28;19918;-73
2024/03/16 03:28:48;;;;;;;;;;;;;;;;;;5006664;28;20297;-73
2024/03/16 03:31:13;;;;;;;;;;;;;;;;;;5006134;28;19971;-73
2024/03/16 03:33:40;;;;;;;;;;;;;;;;;;5007374;28;20374;-72
2024/03/16 03:36:05;;;;;;;;;;;;;;;;;;5006790;28;20020;-73
2024/03/16 03:38:30;;;;;;;;;;;;;;;;;;5006907;28;20004;-73
2024/03/16 03:40:56;;;;;;;;;;;;;;;;;;5006312;28;19925;-72
2024/03/16 03:43:24;;;;;;;;;;;;;;;;;;5006297;28;19933;-73
2024/03/16 03:45:50;;;;;;;;;;;;;;;;;;5007147;28;19941;-73
2024/03/16 03:50:49;;;;;;;;;;;;;;;;;;5005903;28;19918;-73
2024/03/16 03:53:15;;;;;;;;;;;;;;;;;;5004975;28;19928;-73
2024/03/16 03:55:40;;;;;;;;;;;;;;;;;;5006712;28;19921;-73
2024/03/16 03:58:06;;;;;;;;;;;;;;;;;;5001591;28;20354;-73
2024/03/16 04:00:32;;;;;;;;;;;;;;;;;;5007203;28;19917;-73
2024/03/16 04:02:58;;;;;;;;;;;;;;;;;;5006501;28;19930;-73
2024/03/16 04:05:23;;;;;;;;;;;;;;;;;;5005169;28;19922;-73
2024/03/16 04:07:48;;;;;;;;;;;;;;;;;;5002840;28;20012;-73
2024/03/16 04:10:13;;;;;;;;;;;;;;;;;;5004999;28;19922;-73
2024/03/16 04:12:38;;;;;;;;;;;;;;;;;;5007327;28;20279;-73
2024/03/16 04:15:03;;;;;;;;;;;;;;;;;;5006913;28;19929;-73
2024/03/16 04:17:28;;;;;;;;;;;;;;;;;;5012096;28;20124;-73
2024/03/16 04:19:54;;;;;;;;;;;;;;;;;;5012831;28;19925;-73
2024/03/16 04:22:19;;;;;;;;;;;;;;;;;;5011503;28;19925;-73
2024/03/16 04:24:44;;;;;;;;;;;;;;;;;;5011537;28;19922;-73
2024/03/16 04:27:09;;;;;;;;;;;;;;;;;;5011447;28;19940;-73
2024/03/16 04:29:35;;;;;;;;;;;;;;;;;;5011861;28;20390;-73
2024/03/16 04:32:00;;;;;;;;;;;;;;;;;;5010018;28;19948;-73
2024/03/16 04:34:26;;;;;;;;;;;;;;;;;;5012809;28;20393;-73
2024/03/16 04:36:51;;;;;;;;;;;;;;;;;;5011892;28;20019;-73
2024/03/16 04:39:16;;;;;;;;;;;;;;;;;;5010752;28;20000;-73
2024/03/16 04:41:41;;;;;;;;;;;;;;;;;;5010645;28;19972;-73
2024/03/16 04:44:07;;;;;;;;;;;;;;;;;;5009199;28;19925;-73
2024/03/16 04:46:33;;;;;;;;;;;;;;;;;;5010737;28;20387;-73
2024/03/16 04:48:58;;;;;;;;;;;;;;;;;;5009351;28;20524;-73
2024/03/16 04:51:23;;;;;;;;;;;;;;;;;;5010456;28;20385;-73
2024/03/16 04:53:48;;;;;;;;;;;;;;;;;;5010348;28;20215;-73
2024/03/16 04:56:13;;;;;;;;;;;;;;;;;;5009466;28;19984;-73
2024/03/16 04:58:38;;;;;;;;;;;;;;;;;;5009999;28;20293;-73
2024/03/16 05:01:03;;;;;;;;;;;;;;;;;;5009892;28;19926;-73
2024/03/16 05:03:28;;;;;;;;;;;;;;;;;;5009652;28;20177;-73
2024/03/16 05:05:54;;;;;;;;;;;;;;;;;;5009467;28;20425;-74
2024/03/16 05:08:19;;;;;;;;;;;;;;;;;;5009103;28;19928;-75
2024/03/16 05:10:45;;;;;;;;;;;;;;;;;;5008227;28;19925;-75
2024/03/16 05:13:10;;;;;;;;;;;;;;;;;;5009408;28;19968;-76
2024/03/16 05:15:36;;;;;;;;;;;;;;;;;;5009895;28;19960;-78
2024/03/16 05:18:01;;;;;;;;;;;;;;;;;;5009614;28;19982;-75
2024/03/16 05:20:26;;;;;;;;;;;;;;;;;;5009430;28;19987;-78
2024/03/16 05:22:51;;;;;;;;;;;;;;;;;;5009898;28;19991;-73
2024/03/16 05:25:16;;;;;;;;;;;;;;;;;;5009796;28;20349;-73
2024/03/16 05:27:41;;;;;;;;;;;;;;;;;;5008775;28;19933;-73
2024/03/16 05:30:07;;;;;;;;;;;;;;;;;;5008781;28;19940;-73
2024/03/16 05:32:32;;;;;;;;;;;;;;;;;;5009484;28;20003;-73
2024/03/16 05:34:57;;;;;;;;;;;;;;;;;;5009457;28;19928;-73
2024/03/16 05:37:22;;;;;;;;;;;;;;;;;;5011106;28;20029;-73
2024/03/16 05:39:48;;;;;;;;;;;;;;;;;;5009616;28;19921;-73
2024/03/16 05:42:13;;;;;;;;;;;;;;;;;;5008200;28;20206;-73
2024/03/16 05:44:38;;;;;;;;;;;;;;;;;;5009123;28;19976;-73
2024/03/16 05:47:03;;;;;;;;;;;;;;;;;;5008823;28;19922;-73
2024/03/16 05:49:29;;;;;;;;;;;;;;;;;;5007742;28;19928;-73
2024/03/16 05:51:54;;;;;;;;;;;;;;;;;;5008930;28;20169;-73
2024/03/16 05:54:19;;;;;;;;;;;;;;;;;;5006100;28;19921;-73
2024/03/16 05:56:44;;;;;;;;;;;;;;;;;;5011881;28;20139;-73
2024/03/16 05:59:09;;;;;;;;;;;;;;;;;;5008997;28;19953;-73
2024/03/16 06:01:34;;;;;;;;;;;;;;;;;;5013789;28;20000;-73
2024/03/16 06:03:59;;;;;;;;;;;;;;;;;;5008740;28;20326;-73
2024/03/16 06:06:24;;;;;;;;;;;;;;;;;;5008635;28;20397;-73
2024/03/16 06:08:49;;;;;;;;;;;;;;;;;;5007517;28;19926;-73
2024/03/16 06:11:15;;;;;;;;;;;;;;;;;;5009568;28;20008;-73
2024/03/16 06:13:40;;;;;;;;;;;;;;;;;;5010669;28;20358;-73
2024/03/16 06:16:05;;;;;;;;;;;;;;;;;;5007835;28;19925;-73
2024/03/16 06:18:30;;;;;;;;;;;;;;;;;;5007562;28;20267;-73
2024/03/16 06:20:55;;;;;;;;;;;;;;;;;;5007613;28;19922;-73
2024/03/16 06:23:20;;;;;;;;;;;;;;;;;;5006666;28;20020;-70
2024/03/16 06:25:50;;;;;;;;;;;;;;;;;;5003618;28;19928;-73
2024/03/16 06:28:21;;;;;;;;;;;;;;;;;;4988134;28;19925;-72
2024/03/16 06:30:48;;;;;;;;;;;;;;;;;;4983747;28;20530;-72
2024/03/16 06:33:21;;;;;;;;;;;;;;;;;;4988354;28;19922;-72
2024/03/16 06:35:46;;;;;;;;;;;;;;;;;;5004402;28;19918;-72
2024/03/16 06:38:11;;;;;;;;;;;;;;;;;;4988747;28;19933;-72
2024/03/16 06:40:36;;;;;;;;;;;;;;;;;;4988461;28;19929;-72
2024/03/16 06:43:02;;;;;;;;;;;;;;;;;;4988182;28;19937;-72
2024/03/16 06:45:27;;;;;;;;;;;;;;;;;;4999997;28;20016;-72
2024/03/16 06:47:52;;;;;;;;;;;;;;;;;;5006454;28;19968;-72
2024/03/16 06:50:17;;;;;;;;;;;;;;;;;;5007400;28;20397;-72
2024/03/16 06:52:42;;;;;;;;;;;;;;;;;;5007803;28;19975;-72
2024/03/16 06:55:08;;;;;;;;;;;;;;;;;;5007487;28;19968;-72
2024/03/16 06:57:33;;;;;;;;;;;;;;;;;;5008103;28;19967;-72
2024/03/16 06:59:58;;;;;;;;;;;;;;;;;;5007523;28;20016;-73
2024/03/16 07:02:23;;;;;;;;;;;;;;;;;;5007505;28;20339;-73
2024/03/16 07:04:52;;;;;;;;;;;;;;;;;;5007747;28;19922;-72
2024/03/16 07:07:17;;;;;;;;;;;;;;;;;;5007234;28;20016;-72
2024/03/16 07:09:42;;;;;;;;;;;;;;;;;;5007878;28;20068;-72
2024/03/16 07:12:07;;;;;;;;;;;;;;;;;;5008183;28;20248;-72
2024/03/16 07:14:32;;;;;;;;;;;;;;;;;;5009262;28;19922;-72
2024/03/16 07:16:57;;;;;;;;;;;;;;;;;;5008437;28;19924;-72
2024/03/16 07:19:23;;;;;;;;;;;;;;;;;;5007537;28;19924;-71
2024/03/16 07:21:48;;;;;;;;;;;;;;;;;;5007348;28;20021;-72
2024/03/16 07:24:15;;;;;;;;;;;;;;;;;;5005783;28;19917;-73
2024/03/16 07:26:40;;;;;;;;;;;;;;;;;;5007655;28;19956;-72
2024/03/16 07:29:05;;;;;;;;;;;;;;;;;;5014893;28;19925;-72
2024/03/16 07:31:30;;;;;;;;;;;;;;;;;;5007049;28;20000;-72
2024/03/16 07:33:55;;;;;;;;;;;;;;;;;;5007376;28;19924;-72
2024/03/16 07:36:21;;;;;;;;;;;;;;;;;;5011243;28;20008;-72
2024/03/16 07:38:46;;;;;;;;;;;;;;;;;;5008245;28;20402;-72
2024/03/16 07:41:11;;;;;;;;;;;;;;;;;;5008070;28;20340;-72
2024/03/16 07:43:36;;;;;;;;;;;;;;;;;;5007334;28;20103;-72
2024/03/16 07:46:01;;;;;;;;;;;;;;;;;;5007907;28;19921;-72
2024/03/16 07:48:26;;;;;;;;;;;;;;;;;;5007976;28;19986;-71
2024/03/16 07:50:51;;;;;;;;;;;;;;;;;;5004344;28;19922;-71
2024/03/16 07:53:17;;;;;;;;;;;;;;;;;;4989392;28;19949;-71
2024/03/16 07:55:42;;;;;;;;;;;;;;;;;;5003314;28;19921;-71
2024/03/16 07:58:07;;;;;;;;;;;;;;;;;;5008258;28;19918;-71
2024/03/16 08:00:32;;;;;;;;;;;;;;;;;;5007967;28;20242;-72
2024/03/16 08:02:58;;;;;;;;;;;;;;;;;;5006634;28;20001;-71
2024/03/16 08:05:23;;;;;;;;;;;;;;;;;;5007512;28;20314;-72
2024/03/16 08:07:48;;;;;;;;;;;;;;;;;;5007511;28;19918;-71
2024/03/16 08:10:13;;;;;;;;;;;;;;;;;;5006146;28;20274;-71
2024/03/16 08:12:39;;;;;;;;;;;;;;;;;;5008656;28;19922;-72
2024/03/16 08:15:05;;;;;;;;;;;;;;;;;;5009114;28;19928;-71
2024/03/16 08:17:30;;;;;;;;;;;;;;;;;;5007293;28;19953;-71
2024/03/16 08:19:55;;;;;;;;;;;;;;;;;;5006214;28;19924;-71
2024/03/16 08:22:21;;;;;;;;;;;;;;;;;;5006064;28;20008;-71
2024/03/16 08:24:47;;;;;;;;;;;;;;;;;;5006452;28;19918;-72
2024/03/16 08:27:13;;;;;;;;;;;;;;;;;;5006772;28;19948;-72
2024/03/16 08:29:38;;;;;;;;;;;;;;;;;;5006622;28;19917;-70
2024/03/16 08:32:04;;;;;;;;;;;;;;;;;;5005979;28;19995;-71
2024/03/16 08:34:29;;;;;;;;;;;;;;;;;;5006950;28;19940;-71
2024/03/16 08:36:55;;;;;;;;;;;;;;;;;;5013926;28;19925;-71
2024/03/16 08:39:20;;;;;;;;;;;;;;;;;;5004603;28;20036;-71
2024/03/16 08:41:45;;;;;;;;;;;;;;;;;;5012611;28;20428;-71
2024/03/16 08:44:10;;;;;;;;;;;;;;;;;;5005874;28;19929;-71
2024/03/16 08:46:35;;;;;;;;;;;;;;;;;;5006233;28;19928;-72
2024/03/16 08:49:01;;;;;;;;;;;;;;;;;;5007465;28;19975;-73
2024/03/16 08:51:26;;;;;;;;;;;;;;;;;;5007329;28;20371;-73
2024/03/16 08:53:52;;;;;;;;;;;;;;;;;;5007510;28;19930;-73
2024/03/16 08:56:17;;;;;;;;;;;;;;;;;;5005560;28;20096;-73
2024/03/16 08:58:42;;;;;;;;;;;;;;;;;;5006543;28;19949;-73
2024/03/16 09:01:08;;;;;;;;;;;;;;;;;;5006606;28;20000;-72
2024/03/16 09:03:33;;;;;;;;;;;;;;;;;;5008820;28;19922;-72
2024/03/16 09:05:58;;;;;;;;;;;;;;;;;;5008182;28;19926;-72
2024/03/16 09:08:24;;;;;;;;;;;;;;;;;;5007228;28;20406;-73
2024/03/16 09:10:49;;;;;;;;;;;;;;;;;;5007968;28;19928;-71
2024/03/16 09:13:14;;;;;;;;;;;;;;;;;;5014098;28;20421;-72
2024/03/16 09:15:39;;;;;;;;;;;;;;;;;;5011561;28;20322;-72
2024/03/16 09:18:04;;;;;;;;;;;;;;;;;;5009408;28;20007;-72
2024/03/16 09:20:29;;;;;;;;;;;;;;;;;;5005242;28;19922;-73
2024/03/16 09:22:56;;;;;;;;;;;;;;;;;;5004814;28;20016;-73
2024/03/16 09:25:21;;;;;;;;;;;;;;;;;;5012714;28;19931;-72
2024/03/16 09:27:47;;;;;;;;;;;;;;;;;;5015403;28;19921;-72
2024/03/16 09:30:12;;;;;;;;;;;;;;;;;;5007755;28;19921;-73
2024/03/16 09:32:37;;;;;;;;;;;;;;;;;;5008464;28;19917;-72
2024/03/16 09:35:06;;;;;;;;;;;;;;;;;;5008684;28;19929;-72
2024/03/16 09:37:31;;;;;;;;;;;;;;;;;;5010563;28;19921;-72
2024/03/16 09:39:57;;;;;;;;;;;;;;;;;;5009238;28;20181;-71
2024/03/16 09:42:22;;;;;;;;;;;;;;;;;;5008505;28;20334;-72
2024/03/16 09:44:47;;;;;;;;;;;;;;;;;;5021002;28;19925;-72
2024/03/16 09:47:13;;;;;;;;;;;;;;;;;;5012103;28;19921;-72
2024/03/16 09:49:38;;;;;;;;;;;;;;;;;;4994270;28;20311;-73
2024/03/16 09:52:06;;;;;;;;;;;;;;;;;;5004409;28;19975;-72
2024/03/16 09:54:32;;;;;;;;;;;;;;;;;;5007767;28;20460;-72
2024/03/16 09:56:57;;;;;;;;;;;;;;;;;;5009382;28;20195;-72
2024/03/16 09:59:23;;;;;;;;;;;;;;;;;;5016444;28;19988;-72
2024/03/16 10:01:48;;;;;;;;;;;;;;;;;;5009762;28;19967;-72
2024/03/16 10:04:13;;;;;;;;;;;;;;;;;;5008461;28;20012;-72
2024/03/16 10:06:38;;;;;;;;;;;;;;;;;;5009969;28;19928;-72
2024/03/16 10:09:10;;;;;;;;;;;;;;;;;;5008728;28;19960;-72
2024/03/16 10:11:35;;;;;;;;;;;;;;;;;;5008847;28;19929;-72
2024/03/16 10:14:02;;;;;;;;;;;;;;;;;;5008951;28;19948;-73
2024/03/16 10:16:28;;;;;;;;;;;;;;;;;;5008402;28;20390;-72
2024/03/16 10:18:53;;;;;;;;;;;;;;;;;;5009605;28;20442;-72
2024/03/16 10:21:18;;;;;;;;;;;;;;;;;;5010361;28;19928;-72
2024/03/16 10:23:43;;;;;;;;;;;;;;;;;;5008444;28;20278;-72
2024/03/16 10:26:09;;;;;;;;;;;;;;;;;;5007139;28;19957;-72
2024/03/16 10:28:34;;;;;;;;;;;;;;;;;;5011898;28;19992;-72
2024/03/16 10:31:02;;;;;;;;;;;;;;;;;;5008240;28;20452;-72
2024/03/16 10:33:27;;;;;;;;;;;;;;;;;;5007828;28;19964;-73
2024/03/16 10:35:53;;;;;;;;;;;;;;;;;;5009767;28;19971;-73
2024/03/16 10:38:19;;;;;;;;;;;;;;;;;;5010611;28;20111;-72
2024/03/16 10:40:44;;;;;;;;;;;;;;;;;;5008481;28;19933;-73
2024/03/16 10:43:09;;;;;;;;;;;;;;;;;;5008618;28;19930;-73
2024/03/16 10:45:34;;;;;;;;;;;;;;;;;;5007641;28;19928;-72
2024/03/16 10:48:02;;;;;;;;;;;;;;;;;;5008390;28;20326;-73
2024/03/16 10:50:29;;;;;;;;;;;;;;;;;;5006954;28;19925;-72
2024/03/16 10:52:54;;;;;;;;;;;;;;;;;;5007613;28;20394;-72
2024/03/16 10:55:23;;;;;;;;;;;;;;;;;;5005838;28;19952;-72
2024/03/16 10:57:49;;;;;;;;;;;;;;;;;;5007544;28;20402;-73
2024/03/16 11:00:14;;;;;;;;;;;;;;;;;;5007372;28;19922;-72
2024/03/16 11:02:40;;;;;;;;;;;;;;;;;;5006653;28;20390;-72
2024/03/16 11:05:05;;;;;;;;;;;;;;;;;;5009191;28;19921;-71
2024/03/16 11:07:30;;;;;;;;;;;;;;;;;;5007790;28;19980;-73
2024/03/16 11:09:56;;;;;;;;;;;;;;;;;;5007309;28;19965;-71
2024/03/16 11:12:21;;;;;;;;;;;;;;;;;;5005225;28;19933;-72
2024/03/16 11:14:46;;;;;;;;;;;;;;;;;;5007425;28;19924;-72
2024/03/16 11:17:11;;;;;;;;;;;;;;;;;;5006261;28;19972;-73
2024/03/16 11:19:36;;;;;;;;;;;;;;;;;;5007668;28;19984;-70
2024/03/16 11:22:03;;;;;;;;;;;;;;;;;;5013760;28;20336;-71
2024/03/16 11:24:28;;;;;;;;;;;;;;;;;;5008669;28;20007;-70
2024/03/16 11:26:55;;;;;;;;;;;;;;;;;;5008021;28;20394;-71
2024/03/16 11:29:23;;;;;;;;;;;;;;;;;;5006829;28;19972;-71
2024/03/16 11:31:53;;;;;;;;;;;;;;;;;;5006654;28;19917;-71
2024/03/16 11:34:20;;;;;;;;;;;;;;;;;;5004224;28;19922;-70
2024/03/16 11:36:45;;;;;;;;;;;;;;;;;;5003423;28;20004;-72
2024/03/16 11:39:14;;;;;;;;;;;;;;;;;;5014766;28;20415;-73
2024/03/16 11:41:42;;;;;;;;;;;;;;;;;;5006481;28;20436;-72
2024/03/16 11:44:07;;;;;;;;;;;;;;;;;;5005700;28;19969;-72
2024/03/16 11:46:32;;;;;;;;;;;;;;;;;;5005538;28;19957;-72
2024/03/16 11:48:58;;;;;;;;;;;;;;;;;;5005882;28;19921;-72
2024/03/16 11:51:25;;;;;;;;;;;;;;;;;;5009085;28;20020;-74
2024/03/16 11:53:50;;;;;;;;;;;;;;;;;;5006743;28;20108;-74
2024/03/16 11:56:15;;;;;;;;;;;;;;;;;;5006276;28;19930;-73
2024/03/16 11:58:41;;;;;;;;;;;;;;;;;;5006171;28;20214;-73
2024/03/16 12:01:08;;;;;;;;;;;;;;;;;;5006936;28;19925;-73
2024/03/16 12:03:34;;;;;;;;;;;;;;;;;;5011768;28;20405;-73
2024/03/16 12:05:59;;;;;;;;;;;;;;;;;;5010041;28;19922;-72
2024/03/16 12:08:24;;;;;;;;;;;;;;;;;;5011119;28;19924;-73
2024/03/16 12:10:50;;;;;;;;;;;;;;;;;;5006495;28;20012;-73
2024/03/16 12:13:15;;;;;;;;;;;;;;;;;;5005662;28;19928;-73
2024/03/16 12:15:40;;;;;;;;;;;;;;;;;;5005775;28;19967;-73
2024/03/16 12:18:05;;;;;;;;;;;;;;;;;;5012709;28;19928;-72
2024/03/16 12:20:32;;;;;;;;;;;;;;;;;;5011085;28;19918;-73
2024/03/16 12:22:57;;;;;;;;;;;;;;;;;;5009565;28;20461;-73
2024/03/16 12:25:25;;;;;;;;;;;;;;;;;;5008154;28;20445;-74
2024/03/16 12:27:50;;;;;;;;;;;;;;;;;;5014556;28;19933;-73
2024/03/16 12:30:15;;;;;;;;;;;;;;;;;;4990668;28;20411;-73
2024/03/16 12:32:41;;;;;;;;;;;;;;;;;;5011594;28;19936;-72
2024/03/16 12:35:06;;;;;;;;;;;;;;;;;;5009665;28;19921;-74
2024/03/16 12:37:31;;;;;;;;;;;;;;;;;;5010478;28;20045;-73
2024/03/16 12:39:57;;;;;;;;;;;;;;;;;;5009776;28;20051;-74
2024/03/16 12:42:23;;;;;;;;;;;;;;;;;;5016542;28;19934;-73
2024/03/16 12:44:48;;;;;;;;;;;;;;;;;;5009285;28;19921;-72
2024/03/16 12:47:13;;;;;;;;;;;;;;;;;;5011427;28;19922;-73
2024/03/16 12:49:38;;;;;;;;;;;;;;;;;;5015561;28;19961;-73
2024/03/16 12:52:03;;;;;;;;;;;;;;;;;;5010225;28;19926;-73
2024/03/16 12:54:28;;;;;;;;;;;;;;;;;;5014396;28;20341;-72
2024/03/16 12:56:53;;;;;;;;;;;;;;;;;;5009992;28;19975;-73
2024/03/16 12:59:20;;;;;;;;;;;;;;;;;;5009934;28;20008;-74
2024/03/16 13:01:45;;;;;;;;;;;;;;;;;;5008357;28;19921;-73
2024/03/16 13:04:10;;;;;;;;;;;;;;;;;;5007764;28;19921;-73
2024/03/16 13:06:35;;;;;;;;;;;;;;;;;;5007517;28;19937;-73
2024/03/16 13:09:04;;;;;;;;;;;;;;;;;;5009226;28;19922;-73
2024/03/16 13:11:30;;;;;;;;;;;;;;;;;;5007393;28;20020;-73
2024/03/16 13:13:55;;;;;;;;;;;;;;;;;;5006424;28;20028;-73
2024/03/16 13:16:21;;;;;;;;;;;;;;;;;;5008270;28;20848;-74
2024/03/16 13:18:46;;;;;;;;;;;;;;;;;;5008654;28;19933;-73
2024/03/16 13:21:11;;;;;;;;;;;;;;;;;;5008850;28;19921;-73
2024/03/16 13:23:37;;;;;;;;;;;;;;;;;;5009729;28;19991;-72
2024/03/16 13:26:02;;;;;;;;;;;;;;;;;;5008302;28;19947;-74
2024/03/16 13:28:27;;;;;;;;;;;;;;;;;;5007690;28;19929;-73
2024/03/16 13:30:52;;;;;;;;;;;;;;;;;;5007433;28;19926;-73
2024/03/16 13:33:17;;;;;;;;;;;;;;;;;;5008335;28;19929;-74
2024/03/16 13:35:43;;;;;;;;;;;;;;;;;;5007911;28;19992;-73
2024/03/16 13:38:08;;;;;;;;;;;;;;;;;;5006171;28;20114;-73
2024/03/16 13:40:33;;;;;;;;;;;;;;;;;;5006315;28;20353;-73
2024/03/16 13:42:58;;;;;;;;;;;;;;;;;;5007807;28;19925;-74
2024/03/16 13:45:23;;;;;;;;;;;;;;;;;;5006895;28;19928;-73
2024/03/16 13:47:48;;;;;;;;;;;;;;;;;;5006329;28;19930;-73
2024/03/16 13:50:14;;;;;;;;;;;;;;;;;;5004519;28;19928;-73
2024/03/16 13:52:39;;;;;;;;;;;;;;;;;;5006287;28;20361;-72
2024/03/16 13:55:05;;;;;;;;;;;;;;;;;;5006673;28;19922;-72
2024/03/16 13:57:30;;;;;;;;;;;;;;;;;;5008484;28;19930;-73
2024/03/16 13:59:55;;;;;;;;;;;;;;;;;;5009380;28;19921;-74
2024/03/16 14:02:22;;;;;;;;;;;;;;;;;;5008020;28;19933;-75
2024/03/16 14:04:48;;;;;;;;;;;;;;;;;;5008144;28;19933;-73
2024/03/16 14:07:13;;;;;;;;;;;;;;;;;;5009576;28;19932;-73
2024/03/16 14:09:38;;;;;;;;;;;;;;;;;;5009303;28;19963;-73
2024/03/16 14:12:03;;;;;;;;;;;;;;;;;;5008718;28;19925;-73
2024/03/16 14:14:30;;;;;;;;;;;;;;;;;;5009404;28;19917;-73
2024/03/16 14:16:57;;;;;;;;;;;;;;;;;;5009755;28;19924;-73
2024/03/16 14:19:22;;;;;;;;;;;;;;;;;;5009477;28;19918;-73
2024/03/16 14:21:48;;;;;;;;;;;;;;;;;;5008663;28;19924;-73
2024/03/16 14:24:13;;;;;;;;;;;;;;;;;;5007180;28;19918;-72
2024/03/16 14:26:41;;;;;;;;;;;;;;;;;;5010809;28;20471;-73
2024/03/16 14:29:06;;;;;;;;;;;;;;;;;;5010742;28;19917;-73
2024/03/16 14:31:31;;;;;;;;;;;;;;;;;;5008289;28;19922;-77
2024/03/16 14:33:58;;;;;;;;;;;;;;;;;;5009102;28;19924;-74
2024/03/16 14:36:23;;;;;;;;;;;;;;;;;;5013898;28;19966;-73
2024/03/16 14:38:48;;;;;;;;;;;;;;;;;;5009472;28;19917;-73
2024/03/16 14:41:13;;;;;;;;;;;;;;;;;;5008343;28;19976;-73
2024/03/16 14:43:38;;;;;;;;;;;;;;;;;;5008535;28;19999;-74
2024/03/16 14:46:03;;;;;;;;;;;;;;;;;;5008941;28;19917;-73
2024/03/16 14:48:28;;;;;;;;;;;;;;;;;;5006231;28;20107;-73
2024/03/16 14:50:53;;;;;;;;;;;;;;;;;;5008349;28;19924;-73
2024/03/16 14:53:18;;;;;;;;;;;;;;;;;;5008604;28;19921;-74
2024/03/16 14:55:44;;;;;;;;;;;;;;;;;;5008650;28;19921;-75
2024/03/16 14:58:09;;;;;;;;;;;;;;;;;;5008042;28;19925;-73
2024/03/16 15:00:35;;;;;;;;;;;;;;;;;;5007911;28;19917;-73
2024/03/16 15:03:02;;;;;;;;;;;;;;;;;;5008266;28;20159;-73
2024/03/16 15:05:27;;;;;;;;;;;;;;;;;;5008228;28;20280;-73
2024/03/16 15:07:52;;;;;;;;;;;;;;;;;;5008110;28;19979;-73
2024/03/16 15:10:18;;;;;;;;;;;;;;;;;;5007819;28;19918;-73
2024/03/16 15:12:43;;;;;;;;;;;;;;;;;;5008130;28;20410;-73
2024/03/16 15:15:08;;;;;;;;;;;;;;;;;;5008565;28;19921;-74
2024/03/16 15:17:35;;;;;;;;;;;;;;;;;;5008341;28;19917;-73
2024/03/16 15:20:00;;;;;;;;;;;;;;;;;;5006340;28;20135;-73
2024/03/16 15:22:25;;;;;;;;;;;;;;;;;;5007765;28;19930;-73
2024/03/16 15:24:50;;;;;;;;;;;;;;;;;;5008031;28;19986;-74
2024/03/16 15:29:44;;;;;;;;;;;;;;;;;;5008111;28;19922;-73
2024/03/16 15:32:10;;;;;;;;;;;;;;;;;;5007915;28;19924;-75
2024/03/16 15:34:36;;;;;;;;;;;;;;;;;;5007944;28;19921;-73
2024/03/16 15:37:02;;;;;;;;;;;;;;;;;;5015554;28;19948;-76
2024/03/16 15:39:27;;;;;;;;;;;;;;;;;;5008427;28;19925;-73
2024/03/16 15:41:52;;;;;;;;;;;;;;;;;;5007805;28;19925;-75
2024/03/16 15:44:18;;;;;;;;;;;;;;;;;;5007161;28;19917;-74
2024/03/16 15:46:43;;;;;;;;;;;;;;;;;;5010183;28;19960;-71
2024/03/16 15:49:10;;;;;;;;;;;;;;;;;;5010182;28;19965;-71
2024/03/16 15:51:35;;;;;;;;;;;;;;;;;;5010629;28;19921;-71
2024/03/16 15:54:00;;;;;;;;;;;;;;;;;;5010080;28;19927;-71
2024/03/16 15:56:25;;;;;;;;;;;;;;;;;;5009686;28;19971;-71
2024/03/16 15:58:52;;;;;;;;;;;;;;;;;;5008477;28;19922;-71
2024/03/16 16:01:17;;;;;;;;;;;;;;;;;;5009239;28;20056;-71
2024/03/16 16:03:43;;;;;;;;;;;;;;;;;;5008404;28;19922;-71
2024/03/16 16:06:08;;;;;;;;;;;;;;;;;;5007634;28;20314;-71
2024/03/16 16:08:33;;;;;;;;;;;;;;;;;;5007714;28;19917;-71
2024/03/16 16:10:58;;;;;;;;;;;;;;;;;;5008587;28;19917;-71
2024/03/16 16:13:24;;;;;;;;;;;;;;;;;;5011512;28;20285;-71
2024/03/16 16:15:49;;;;;;;;;;;;;;;;;;5011485;28;19921;-71
2024/03/16 16:18:15;;;;;;;;;;;;;;;;;;5010226;28;19933;-70
2024/03/16 16:20:40;;;;;;;;;;;;;;;;;;5011095;28;19922;-71
2024/03/16 16:23:07;;;;;;;;;;;;;;;;;;5011240;28;19925;-71
2024/03/16 16:25:32;;;;;;;;;;;;;;;;;;5011305;28;19928;-71
2024/03/16 16:27:58;;;;;;;;;;;;;;;;;;5011023;28;20215;-71
2024/03/16 16:30:23;;;;;;;;;;;;;;;;;;5010026;28;19922;-71
2024/03/16 16:32:50;;;;;;;;;;;;;;;;;;5011208;28;19941;-71
2024/03/16 16:35:15;;;;;;;;;;;;;;;;;;5000140;28;20029;-71
2024/03/16 16:37:40;;;;;;;;;;;;;;;;;;5017604;28;20004;-71
2024/03/16 16:40:05;;;;;;;;;;;;;;;;;;5012118;28;19924;-71